Time;durP1;ratioP1;P1;durP2;ratioP2;P2;SDS_P1;SDS_P2;PMS_P1;PMS_P2;Temp;Humidity;BMP_temperature;BMP_pressure;BME280_temperature;BME280_humidity;BME280_pressure;Samples;Min_cycle;Max_cycle;Signal;HPM_P1;HPM_P2
2022/09/28 00:00:46;;;;;;;8.33;5.30;;;;;;;17.47;100.00;98895.52;1723607;83;20929;-58
2022/09/28 00:03:13;;;;;;;7.90;5.43;;;;;;;17.46;100.00;98892.09;1723640;81;21654;-60
2022/09/28 00:05:39;;;;;;;7.53;5.13;;;;;;;17.43;100.00;98891.30;1707595;83;21117;-58
2022/09/28 00:08:07;;;;;;;9.10;5.63;;;;;;;17.45;100.00;98890.49;1704045;82;20997;-60
2022/09/28 00:10:34;;;;;;;8.63;5.63;;;;;;;17.48;100.00;98887.34;1705680;83;21167;-60
2022/09/28 00:13:02;;;;;;;8.27;4.83;;;;;;;17.54;100.00;98889.47;1703243;82;21138;-59
2022/09/28 00:15:32;;;;;;;7.00;4.80;;;;;;;17.53;100.00;98883.91;1702651;83;20985;-59
2022/09/28 00:17:59;;;;;;;7.87;5.10;;;;;;;17.59;100.00;98892.10;1700888;83;21253;-58
2022/09/28 00:20:26;;;;;;;7.57;5.13;;;;;;;17.69;100.00;98887.35;1704285;83;21475;-58
2022/09/28 00:22:53;;;;;;;8.80;5.50;;;;;;;17.62;100.00;98888.16;1705613;83;21005;-60
2022/09/28 00:25:21;;;;;;;9.47;6.13;;;;;;;17.61;100.00;98880.76;1699656;83;21053;-59
2022/09/28 00:27:51;;;;;;;9.57;5.03;;;;;;;17.66;100.00;98876.05;1701410;83;21581;-61
2022/09/28 00:30:19;;;;;;;6.72;5.20;;;;;;;17.68;100.00;98881.83;1703196;83;21260;-59
2022/09/28 00:32:48;;;;;;;7.37;4.80;;;;;;;17.67;100.00;98878.40;1703748;83;20938;-59
2022/09/28 00:35:15;;;;;;;8.20;5.23;;;;;;;17.74;100.00;98873.66;1700919;83;21037;-59
2022/09/28 00:37:43;;;;;;;7.53;5.50;;;;;;;17.74;100.00;98871.03;1690261;83;20926;-66
2022/09/28 00:40:12;;;;;;;7.53;5.27;;;;;;;17.78;100.00;98862.62;1690210;83;21534;-61
2022/09/28 00:42:41;;;;;;;8.33;5.37;;;;;;;17.74;100.00;98858.38;1690521;83;21231;-60
2022/09/28 00:45:09;;;;;;;7.87;5.40;;;;;;;17.67;100.00;98848.63;1704396;83;20950;-59
2022/09/28 00:47:51;;;;;;;6.80;5.13;;;;;;;17.62;100.00;98838.88;1701402;83;21104;-67
2022/09/28 00:50:31;;;;;;;8.18;5.05;;;;;;;17.60;100.00;98842.30;1705478;83;21475;-61
2022/09/28 00:53:12;;;;;;;8.30;5.37;;;;;;;17.56;100.00;98845.20;1701933;82;21481;-60
2022/09/28 00:55:47;;;;;;;10.33;5.63;;;;;;;17.60;100.00;98838.34;1704250;83;22540;-60
2022/09/28 00:58:18;;;;;;;8.77;5.70;;;;;;;17.66;100.00;98828.61;1703022;83;21002;-60
2022/09/28 01:00:46;;;;;;;10.27;5.37;;;;;;;17.71;100.00;98836.50;1704858;83;21057;-60
2022/09/28 01:03:14;;;;;;;9.87;5.87;;;;;;;17.72;100.00;98840.70;1696438;83;20933;-60
2022/09/28 01:05:43;;;;;;;11.03;6.00;;;;;;;17.69;100.00;98839.91;1697941;83;21328;-62
2022/09/28 01:08:10;;;;;;;11.27;6.07;;;;;;;17.66;100.00;98833.34;1702068;84;21479;-60
2022/09/28 01:10:38;;;;;;;7.30;4.90;;;;;;;17.69;100.00;98836.78;1679733;84;21520;-59
2022/09/28 01:13:05;;;;;;;9.70;5.33;;;;;;;17.69;100.00;98835.46;1702864;83;20968;-67
2022/09/28 01:15:35;;;;;;;8.43;4.80;;;;;;;17.75;100.00;98843.64;1701740;84;21002;-60
2022/09/28 01:18:14;;;;;;;9.97;5.03;;;;;;;17.74;100.00;98844.67;1679827;84;21004;-60
2022/09/28 01:20:56;;;;;;;8.90;5.93;;;;;;;17.84;100.00;98845.23;1701865;84;21468;-60
2022/09/28 01:23:56;;;;;;;9.05;5.95;;;;;;;17.89;100.00;98837.31;1701834;84;21607;-60
2022/09/28 01:26:38;;;;;;;7.57;4.70;;;;;;;17.90;100.00;98839.42;1701406;83;20971;-67
2022/09/28 01:29:10;;;;;;;8.20;5.13;;;;;;;17.92;100.00;98842.59;1701862;84;21453;-60
2022/09/28 01:31:40;;;;;;;7.40;4.87;;;;;;;17.93;100.00;98837.58;1701575;84;21502;-60
2022/09/28 01:34:21;;;;;;;7.50;4.70;;;;;;;17.91;100.00;98833.87;1701308;84;21237;-66
2022/09/28 01:36:50;;;;;;;7.17;4.65;;;;;;;17.93;100.00;98833.09;1701922;84;21048;-62
2022/09/28 01:39:22;;;;;;;6.57;4.93;;;;;;;18.01;100.00;98833.08;1703376;83;20946;-61
2022/09/28 01:41:51;;;;;;;7.70;5.17;;;;;;;18.07;100.00;98828.57;1701121;84;20923;-61
2022/09/28 01:44:20;;;;;;;8.43;4.53;;;;;;;17.99;100.00;98833.86;1701944;83;21041;-61
2022/09/28 01:46:48;;;;;;;11.10;5.77;;;;;;;17.97;100.00;98830.72;1701729;84;21163;-60
2022/09/28 01:49:22;;;;;;;8.50;5.20;;;;;;;17.89;100.00;98830.72;1701904;84;21421;-60
2022/09/28 01:52:19;;;;;;;7.63;5.50;;;;;;;17.92;100.00;98830.73;1700957;84;20950;-64
2022/09/28 01:55:08;;;;;;;8.97;5.37;;;;;;;17.97;100.00;98830.72;1701803;84;20919;-61
2022/09/28 01:57:46;;;;;;;6.72;5.25;;;;;;;18.03;100.00;98831.48;1701990;84;21038;-60
2022/09/28 02:00:15;;;;;;;7.77;4.97;;;;;;;18.07;100.00;98830.70;1678507;84;21076;-60
2022/09/28 02:03:06;;;;;;;7.57;5.70;;;;;;;18.12;100.00;98831.22;1701157;84;20960;-66
2022/09/28 02:05:43;;;;;;;7.87;5.90;;;;;;;18.17;100.00;98829.34;1701315;83;20994;-59
2022/09/28 02:08:25;;;;;;;6.03;4.87;;;;;;;18.22;100.00;98834.63;1700830;84;21022;-62
2022/09/28 02:11:10;;;;;;;9.90;6.20;;;;;;;18.14;100.00;98837.78;1701747;84;20946;-59
2022/09/28 02:13:45;;;;;;;9.07;6.47;;;;;;;18.12;100.00;98833.33;1701875;83;21229;-58
2022/09/28 02:16:20;;;;;;;10.57;6.17;;;;;;;18.16;100.00;98826.98;1701345;84;21002;-59
2022/09/28 02:18:49;;;;;;;10.07;7.03;;;;;;;18.11;100.00;98825.69;1701879;84;20959;-59
2022/09/28 02:21:27;;;;;;;8.80;6.10;;;;;;;18.06;100.00;98833.59;1701842;84;20967;-58
2022/09/28 02:23:58;;;;;;;11.00;6.40;;;;;;;18.00;100.00;98826.23;1701792;84;20967;-59
2022/09/28 02:26:30;;;;;;;8.33;6.33;;;;;;;18.07;100.00;98822.80;1702125;84;21254;-58
2022/09/28 02:28:57;;;;;;;9.43;6.20;;;;;;;18.09;100.00;98818.56;1703445;83;20907;-59
2022/09/28 02:31:25;;;;;;;8.33;6.80;;;;;;;18.16;100.00;98810.63;1701809;83;20999;-65
2022/09/28 02:33:53;;;;;;;9.60;6.30;;;;;;;18.26;100.00;98820.88;1701668;84;21054;-59
2022/09/28 02:36:20;;;;;;;8.13;5.97;;;;;;;18.25;100.00;98830.64;1701968;83;21610;-59
2022/09/28 02:38:48;;;;;;;11.57;6.13;;;;;;;18.20;100.00;98823.55;1701973;83;21167;-59
2022/09/28 02:41:45;;;;;;;7.53;6.10;;;;;;;18.19;100.00;98826.45;1701807;84;21112;-59
2022/09/28 02:44:27;;;;;;;9.53;5.93;;;;;;;18.18;100.00;98827.49;1701980;84;21481;-58
2022/09/28 02:47:17;;;;;;;8.28;6.92;;;;;;;18.15;100.00;98834.11;1687778;84;20995;-67
2022/09/28 02:50:23;;;;;;;9.90;5.90;;;;;;;17.98;100.00;98838.34;1701968;84;21413;-60
2022/09/28 02:53:20;;;;;;;9.43;5.77;;;;;;;18.03;100.00;98825.67;1701814;84;21162;-60
2022/09/28 02:56:07;;;;;;;8.77;6.17;;;;;;;18.03;100.00;98826.99;1650692;86;21040;-60
2022/09/28 02:58:40;;;;;;;9.63;6.30;;;;;;;18.04;100.00;98824.64;1701817;84;20983;-60
2022/09/28 03:01:37;;;;;;;9.67;6.47;;;;;;;18.04;100.00;98828.59;1667394;84;20995;-68
2022/09/28 03:04:44;;;;;;;8.20;6.07;;;;;;;17.97;100.00;98825.44;1658952;86;20933;-59
2022/09/28 03:07:28;;;;;;;10.03;5.80;;;;;;;18.07;100.00;98830.70;1649895;86;22227;-60
2022/09/28 03:10:06;;;;;;;10.20;6.73;;;;;;;18.16;100.00;98839.64;1690672;84;21002;-64
2022/09/28 03:12:33;;;;;;;8.03;6.50;;;;;;;18.17;100.00;98839.11;1701962;83;22359;-59
2022/09/28 03:15:26;;;;;;;8.10;5.53;;;;;;;18.13;100.00;98842.02;1701822;84;21449;-59
2022/09/28 03:17:55;;;;;;;8.53;6.33;;;;;;;18.09;100.00;98835.17;1701437;84;20923;-58
2022/09/28 03:20:23;;;;;;;9.07;6.57;;;;;;;18.12;100.00;98835.17;1680217;84;21514;-59
2022/09/28 03:22:50;;;;;;;10.40;6.37;;;;;;;18.15;100.00;98835.43;1701782;83;20975;-59
2022/09/28 03:25:17;;;;;;;10.00;6.47;;;;;;;18.16;100.00;98826.98;1701885;84;21515;-60
2022/09/28 03:27:45;;;;;;;7.63;5.63;;;;;;;18.16;100.00;98831.73;1701304;84;21517;-59
2022/09/28 03:30:12;;;;;;;9.23;7.00;;;;;;;18.16;100.00;98830.95;1701812;84;20974;-58
2022/09/28 03:32:40;;;;;;;7.77;5.67;;;;;;;18.13;100.00;98837.53;1701945;84;21246;-58
2022/09/28 03:35:08;;;;;;;7.77;5.97;;;;;;;18.16;100.00;98842.81;1701720;84;20949;-59
2022/09/28 03:37:35;;;;;;;10.33;6.50;;;;;;;18.18;100.00;98837.54;1701611;84;20940;-64
2022/09/28 03:40:04;;;;;;;8.10;5.63;;;;;;;18.17;100.00;98846.48;1701765;84;20923;-58
2022/09/28 03:42:37;;;;;;;8.83;6.83;;;;;;;18.18;100.00;98836.73;1701960;84;20840;-58
2022/09/28 03:45:05;;;;;;;8.50;6.53;;;;;;;18.19;100.00;98835.69;1701900;84;21202;-59
2022/09/28 03:47:33;;;;;;;9.57;6.73;;;;;;;18.19;100.00;98844.39;1701769;84;20907;-64
2022/09/28 03:50:02;;;;;;;9.40;6.87;;;;;;;18.28;100.00;98848.58;1701509;84;20918;-58
2022/09/28 03:52:29;;;;;;;8.80;6.37;;;;;;;18.38;100.00;98837.22;1701946;83;21053;-58
2022/09/28 03:54:56;;;;;;;8.40;6.97;;;;;;;18.45;100.00;98846.44;1701975;83;21113;-58
2022/09/28 03:57:24;;;;;;;8.70;6.90;;;;;;;18.59;100.00;98843.20;1701870;84;21176;-58
2022/09/28 03:59:52;;;;;;;7.17;5.83;;;;;;;18.67;100.00;98846.59;1701603;84;21502;-60
2022/09/28 04:02:19;;;;;;;9.97;6.87;;;;;;;18.72;100.00;98850.59;1701847;84;21005;-58
2022/09/28 04:04:46;;;;;;;11.43;7.60;;;;;;;18.58;100.00;98852.98;1701893;84;20860;-58
2022/09/28 04:07:14;;;;;;;8.30;6.87;;;;;;;18.51;100.00;98853.00;1721865;81;21068;-57
2022/09/28 04:09:43;;;;;;;10.23;7.97;;;;;;;18.54;100.00;98846.66;1724094;81;21119;-58
2022/09/28 04:12:10;;;;;;;8.97;8.00;;;;;;;18.54;100.00;98840.06;1722957;83;21574;-58
2022/09/28 04:14:38;;;;;;;12.47;7.90;;;;;;;18.57;100.00;98837.42;1723981;83;21125;-59
2022/09/28 04:17:06;;;;;;;11.53;8.43;;;;;;;18.61;100.00;98838.46;1724136;81;20976;-58
2022/09/28 04:19:33;;;;;;;10.97;8.10;;;;;;;18.69;100.00;98830.77;1696464;83;20882;-57
2022/09/28 04:22:05;;;;;;;10.20;9.00;;;;;;;18.71;100.00;98827.36;1721371;81;21192;-59
2022/09/28 04:24:32;;;;;;;13.10;10.57;;;;;;;18.65;100.00;98829.73;1723934;81;20951;-58
2022/09/28 04:29:30;;;;;;;11.73;9.63;;;;;;;18.70;100.00;98831.55;1682514;81;21589;-58
2022/09/28 04:31:57;;;;;;;12.87;10.60;;;;;;;18.74;100.00;98831.29;1724283;83;21017;-58
2022/09/28 04:34:27;;;;;;;12.47;11.13;;;;;;;18.69;100.00;98836.58;1695829;81;21176;-65
2022/09/28 04:36:55;;;;;;;14.70;11.30;;;;;;;18.76;100.00;98834.47;1724143;83;21004;-58
2022/09/28 04:39:22;;;;;;;13.63;11.87;;;;;;;18.81;100.00;98832.33;1724325;81;20965;-58
2022/09/28 04:41:53;;;;;;;14.17;12.10;;;;;;;18.83;100.00;98832.86;1724388;83;21461;-61
2022/09/28 04:44:21;;;;;;;14.33;12.27;;;;;;;18.84;100.00;98823.33;1724072;83;21046;-67
2022/09/28 04:46:50;;;;;;;17.27;12.27;;;;;;;18.90;100.00;98828.05;1724145;83;21225;-58
2022/09/28 04:49:29;;;;;;;15.00;13.23;;;;;;;18.97;100.00;98825.89;1724244;83;20948;-59
2022/09/28 04:51:58;;;;;;;15.97;11.30;;;;;;;19.04;100.00;98829.02;1724133;81;21080;-59
2022/09/28 04:54:25;;;;;;;13.83;12.20;;;;;;;19.06;100.00;98826.91;1723854;83;20989;-66
2022/09/28 04:56:53;;;;;;;15.03;12.27;;;;;;;19.02;100.00;98823.24;1724252;83;21043;-59
2022/09/28 04:59:20;;;;;;;15.00;12.80;;;;;;;19.11;100.00;98822.91;1724345;81;21134;-59
2022/09/28 05:01:48;;;;;;;15.47;12.47;;;;;;;19.07;100.00;98827.16;1724124;83;21000;-59
2022/09/28 05:04:33;;;;;;;12.93;11.53;;;;;;;19.10;100.00;98831.91;1723916;83;21723;-59
2022/09/28 05:07:05;;;;;;;12.47;10.37;;;;;;;19.14;100.00;98833.47;1714889;83;20925;-59
2022/09/28 05:09:34;;;;;;;16.23;12.57;;;;;;;19.16;100.00;98824.72;1711150;83;20949;-59
2022/09/28 05:12:02;;;;;;;17.67;12.93;;;;;;;19.18;100.00;98833.97;1711088;82;21139;-65
2022/09/28 05:14:29;;;;;;;14.47;12.37;;;;;;;19.25;100.00;98832.88;1710657;83;21100;-60
2022/09/28 05:16:57;;;;;;;13.97;12.47;;;;;;;19.36;100.00;98837.03;1706281;83;21140;-60
2022/09/28 05:19:29;;;;;;;16.17;12.93;;;;;;;19.40;100.00;98838.84;1710370;82;21010;-60
2022/09/28 05:22:04;;;;;;;14.60;12.80;;;;;;;19.40;100.00;98839.38;1710007;83;21471;-60
2022/09/28 05:24:33;;;;;;;14.27;12.77;;;;;;;19.39;100.00;98833.28;1707803;83;21105;-60
2022/09/28 05:27:00;;;;;;;15.53;13.93;;;;;;;19.41;100.00;98833.80;1710369;83;21024;-60
2022/09/28 05:29:28;;;;;;;16.73;13.27;;;;;;;19.39;100.00;98835.13;1710499;83;21081;-60
2022/09/28 05:32:14;;;;;;;16.50;14.57;;;;;;;19.42;100.00;98835.91;1685548;83;21040;-59
2022/09/28 05:34:43;;;;;;;16.17;14.03;;;;;;;19.42;100.00;98839.34;1710430;83;21013;-59
2022/09/28 05:37:12;;;;;;;18.23;14.40;;;;;;;19.48;100.00;98845.39;1707084;83;21838;-60
2022/09/28 05:39:39;;;;;;;16.57;14.60;;;;;;;19.55;100.00;98841.91;1708148;83;21656;-65
2022/09/28 05:42:07;;;;;;;15.13;13.53;;;;;;;19.64;100.00;98838.94;1708488;83;22611;-62
2022/09/28 05:44:34;;;;;;;15.20;13.67;;;;;;;19.70;100.00;98838.38;1708073;83;21084;-59
2022/09/28 05:47:01;;;;;;;14.43;12.93;;;;;;;19.80;100.00;98837.48;1706449;83;21071;-60
2022/09/28 05:49:30;;;;;;;16.63;14.93;;;;;;;19.92;100.00;98843.97;1710475;83;21100;-59
2022/09/28 05:51:59;;;;;;;15.80;14.20;;;;;;;20.03;100.00;98847.86;1710062;83;21591;-67
2022/09/28 05:54:26;;;;;;;15.57;13.30;;;;;;;20.20;100.00;98848.77;1710437;83;21473;-60
2022/09/28 05:56:54;;;;;;;16.13;14.50;;;;;;;20.38;100.00;98848.83;1707540;83;20977;-59
2022/09/28 05:59:21;;;;;;;13.80;12.40;;;;;;;20.50;100.00;98849.78;1710750;83;21084;-62
2022/09/28 06:01:48;;;;;;;14.57;13.07;;;;;;;20.66;100.00;98842.44;1710204;82;21061;-61
2022/09/28 06:04:16;;;;;;;16.07;14.47;;;;;;;20.68;100.00;98844.80;1710592;83;21052;-61
2022/09/28 06:06:44;;;;;;;14.23;12.70;;;;;;;20.74;100.00;98837.84;1710561;82;21020;-60
2022/09/28 06:09:12;;;;;;;14.60;13.10;;;;;;;20.73;100.00;98840.78;1710446;83;21614;-61
2022/09/28 06:11:51;;;;;;;15.93;13.43;;;;;;;20.79;100.00;98838.30;1701067;83;21164;-62
2022/09/28 06:14:20;;;;;;;13.10;11.03;;;;;;;20.93;100.00;98851.64;1706776;83;21238;-62
2022/09/28 06:16:49;;;;;;;14.83;13.33;;;;;;;20.96;100.00;98845.23;1710786;83;21009;-59
2022/09/28 06:19:16;;;;;;;16.87;14.03;;;;;;;20.94;100.00;98845.27;1706426;83;21077;-63
2022/09/28 06:21:46;;;;;;;14.90;13.40;;;;;;;20.76;100.00;98848.95;1710374;83;21460;-60
2022/09/28 06:24:14;;;;;;;17.23;13.20;;;;;;;20.83;100.00;98855.98;1710501;83;21060;-60
2022/09/28 06:26:41;;;;;;;16.60;14.80;;;;;;;20.91;100.00;98855.91;1710369;83;22533;-62
2022/09/28 06:29:09;;;;;;;16.23;14.60;;;;;;;21.04;100.00;98851.75;1710436;82;21533;-60
2022/09/28 06:31:36;;;;;;;15.43;13.07;;;;;;;21.05;100.00;98853.33;1710031;83;21021;-65
2022/09/28 06:34:04;;;;;;;15.37;13.87;;;;;;;21.09;100.00;98851.13;1710091;83;22424;-60
2022/09/28 06:36:32;;;;;;;14.63;12.67;;;;;;;21.20;100.00;98847.81;1711295;83;21016;-60
2022/09/28 06:39:00;;;;;;;17.97;16.07;;;;;;;21.25;100.00;98850.92;1711423;83;21582;-61
2022/09/28 06:41:28;;;;;;;15.37;13.87;;;;;;;21.38;100.00;98847.58;1711160;83;20894;-60
2022/09/28 06:43:57;;;;;;;16.03;14.40;;;;;;;21.44;100.00;98849.09;1710507;83;20918;-62
2022/09/28 06:46:43;;;;;;;16.47;14.73;;;;;;;21.57;100.00;98845.69;1711252;83;21072;-62
2022/09/28 06:49:18;;;;;;;15.60;14.00;;;;;;;21.71;100.00;98844.42;1708936;83;21017;-61
2022/09/28 06:52:04;;;;;;;15.67;14.03;;;;;;;21.66;100.00;98843.16;1711304;83;21379;-62
2022/09/28 06:54:36;;;;;;;14.93;13.47;;;;;;;21.56;100.00;98836.17;1685652;83;21137;-62
2022/09/28 06:57:11;;;;;;;14.50;13.00;;;;;;;21.40;100.00;98826.86;1708550;83;20989;-63
2022/09/28 06:59:40;;;;;;;14.97;13.07;;;;;;;21.32;100.00;98823.52;1711347;83;22247;-62
2022/09/28 07:02:15;;;;;;;14.80;13.20;;;;;;;21.41;100.00;98823.16;1711226;83;20941;-61
2022/09/28 07:04:53;;;;;;;15.33;13.87;;;;;;;21.41;100.00;98811.23;1705973;83;21477;-63
2022/09/28 07:07:43;;;;;;;16.63;14.93;;;;;;;21.46;100.00;98809.81;1722459;82;21049;-61
2022/09/28 07:10:11;;;;;;;15.80;14.28;;;;;;;21.51;100.00;98820.32;1728447;82;20949;-62
2022/09/28 07:12:43;;;;;;;17.50;15.63;;;;;;;21.57;100.00;98817.06;1700163;84;21465;-62
2022/09/28 07:15:24;;;;;;;16.80;15.20;;;;;;;21.58;100.00;98820.73;1704042;83;20890;-62
2022/09/28 07:18:00;;;;;;;16.10;14.60;;;;;;;21.80;100.00;98829.39;1696052;84;21142;-66
2022/09/28 07:20:27;;;;;;;16.80;15.20;;;;;;;21.72;100.00;98830.07;1680928;84;21088;-61
2022/09/28 07:22:55;;;;;;;15.70;14.20;;;;;;;21.78;100.00;98824.12;1696490;84;20870;-62
2022/09/28 07:25:24;;;;;;;14.83;13.53;;;;;;;22.01;100.00;98824.53;1722918;83;21456;-62
2022/09/28 07:28:03;;;;;;;15.70;14.17;;;;;;;22.41;100.00;98827.52;1722754;83;21013;-64
2022/09/28 07:30:33;;;;;;;18.63;14.30;;;;;;;22.61;100.00;98819.67;1693566;83;21153;-62
2022/09/28 07:33:09;;;;;;;18.10;16.40;;;;;;;22.64;100.00;98805.02;1723278;81;20996;-62
2022/09/28 07:35:51;;;;;;;17.43;15.87;;;;;;;22.69;100.00;98819.52;1699587;83;21640;-61
2022/09/28 07:38:19;;;;;;;15.90;14.37;;;;;;;22.96;100.00;98814.19;1724281;83;21037;-62
2022/09/28 07:43:32;;;;;;;17.57;15.97;;;;;;;23.54;100.00;98817.89;1724277;83;21244;-61
2022/09/28 07:45:59;;;;;;;17.80;16.20;;;;;;;23.61;100.00;98821.46;1724363;82;21503;-63
2022/09/28 07:48:27;;;;;;;17.03;15.53;;;;;;;23.65;100.00;98826.41;1724352;81;21439;-62
2022/09/28 07:51:16;;;;;;;17.53;15.93;;;;;;;23.47;100.00;98826.30;1723072;83;21586;-61
2022/09/28 07:53:45;;;;;;;15.65;14.05;;;;;;;23.34;100.00;98824.49;1722552;83;21041;-64
2022/09/28 07:56:21;;;;;;;27.93;24.67;;;;;;;23.23;100.00;98821.83;1723660;83;21503;-68
2022/09/28 07:58:56;;;;;;;19.33;17.63;;;;;;;23.33;100.00;98820.24;1723655;83;21087;-62
2022/09/28 08:01:42;;;;;;;16.93;15.33;;;;;;;23.61;100.00;98820.91;1724286;83;21008;-62
2022/09/28 08:04:11;;;;;;;16.53;14.90;;;;;;;24.00;100.00;98825.52;1723510;83;20961;-65
2022/09/28 08:06:40;;;;;;;15.35;13.95;;;;;;;24.31;100.00;98826.03;1721525;82;21384;-62
2022/09/28 08:09:09;;;;;;;15.10;13.78;;;;;;;24.61;100.00;98814.30;1701737;84;21274;-63
2022/09/28 08:11:38;;;;;;;14.75;13.45;;;;;;;24.53;100.00;98817.19;1643740;84;20923;-63
2022/09/28 08:14:07;;;;;;;15.70;14.33;;;;;;;24.31;100.00;98815.38;1642885;84;21005;-62
2022/09/28 08:16:52;;;;;;;15.73;14.33;;;;;;;23.99;100.00;98817.30;1701866;83;20986;-62
2022/09/28 08:19:23;;;;;;;15.77;14.20;;;;;;;23.67;100.00;98826.91;1701366;84;21519;-62
2022/09/28 08:21:51;;;;;;;16.00;14.50;;;;;;;23.46;100.00;98826.06;1679015;84;21838;-64
2022/09/28 08:24:18;;;;;;;13.83;12.60;;;;;;;23.31;100.00;98822.44;1701704;84;21036;-63
2022/09/28 08:26:47;;;;;;;15.13;13.77;;;;;;;23.13;100.00;98830.03;1701794;84;20967;-64
2022/09/28 08:29:16;;;;;;;14.77;13.40;;;;;;;22.96;100.00;98833.34;1697293;84;21044;-62
2022/09/28 08:31:46;;;;;;;14.63;13.33;;;;;;;22.82;100.00;98826.69;1689465;84;20890;-71
2022/09/28 08:34:15;;;;;;;;;;;;;;;22.74;100.00;98828.72;1690165;84;21146;-62
2022/09/28 08:36:43;;;;;;;14.30;13.03;;;;;;;22.75;100.00;98835.60;1664711;84;20145;-61
2022/09/28 08:39:29;;;;;;;15.77;14.30;;;;;;;22.80;100.00;98836.81;1689244;84;20976;-70
2022/09/28 08:42:32;;;;;;;14.80;13.50;;;;;;;22.82;100.00;98842.63;1682234;84;21582;-62
2022/09/28 08:45:08;;;;;;;14.17;12.73;;;;;;;22.83;100.00;98836.22;1685867;84;21503;-63
2022/09/28 08:50:57;;;;;;;14.83;13.43;;;;;;;23.05;100.00;98828.33;1642241;87;21052;-62
2022/09/28 08:53:41;;;;;;;15.70;14.10;;;;;;;23.20;100.00;98822.42;1670034;85;20969;-62
2022/09/28 08:56:30;;;;;;;13.13;12.00;;;;;;;23.28;100.00;98824.36;1671606;85;22074;-70
2022/09/28 08:59:01;;;;;;;13.65;12.33;;;;;;;23.42;100.00;98822.98;1673786;85;20994;-62
2022/09/28 09:01:33;;;;;;;14.93;13.43;;;;;;;23.59;100.00;98831.61;1652175;85;21933;-62
2022/09/28 09:04:04;;;;;;;13.57;12.27;;;;;;;23.73;100.00;98831.80;1673383;85;21500;-70
2022/09/28 09:06:50;;;;;;;14.28;13.08;;;;;;;23.82;100.00;98835.84;1672779;85;28277;-61
2022/09/28 09:09:47;;;;;;;14.17;12.77;;;;;;;23.71;100.00;98839.84;1673536;85;20957;-62
2022/09/28 09:12:30;;;;;;;13.50;12.30;;;;;;;23.55;100.00;98843.39;1673667;85;21492;-63
2022/09/28 09:15:24;;;;;;;13.33;12.07;;;;;;;23.33;100.00;98844.17;1642148;85;21261;-63
2022/09/28 09:18:12;;;;;;;14.43;13.13;;;;;;;23.13;100.00;98840.11;1673126;85;20986;-61
2022/09/28 09:20:57;;;;;;;15.50;14.00;;;;;;;22.88;100.00;98837.98;1672580;85;20949;-64
2022/09/28 09:23:39;;;;;;;13.70;12.23;;;;;;;22.70;100.00;98855.64;1673347;85;20993;-62
2022/09/28 09:26:37;;;;;;;14.90;13.57;;;;;;;22.63;100.00;98849.94;1673728;85;21000;-62
2022/09/28 09:29:27;;;;;;;15.87;14.23;;;;;;;22.57;100.00;98840.72;1673683;85;21136;-62
2022/09/28 09:32:22;;;;;;;16.40;14.90;;;;;;;22.88;100.00;98840.63;1672954;85;20922;-65
2022/09/28 09:35:14;;;;;;;14.67;13.30;;;;;;;23.13;100.00;98837.45;1673593;85;21487;-62
2022/09/28 09:38:07;;;;;;;13.60;12.30;;;;;;;23.54;100.00;98842.61;1647043;85;21603;-62
2022/09/28 09:41:02;;;;;;;15.03;13.53;;;;;;;23.83;100.00;98836.09;1620162;88;21055;-63
2022/09/28 09:44:21;;;;;;;13.80;12.50;;;;;;;23.91;100.00;98830.03;1667280;85;21325;-63
2022/09/28 09:47:06;;;;;;;15.23;13.72;;;;;;;23.82;100.00;98830.52;1696887;84;21558;-62
2022/09/28 09:50:24;;;;;;;13.37;11.87;;;;;;;23.76;100.00;98832.53;1627326;87;20995;-63
2022/09/28 09:52:56;;;;;;;12.43;11.23;;;;;;;23.63;100.00;98828.58;1623387;88;21051;-68
2022/09/28 09:55:39;;;;;;;14.93;13.57;;;;;;;23.46;100.00;98834.59;1627327;88;21129;-61
2022/09/28 09:58:32;;;;;;;14.50;13.20;;;;;;;23.42;100.00;98834.40;1653676;86;21163;-70
2022/09/28 10:01:22;;;;;;;15.08;13.70;;;;;;;23.45;100.00;98832.47;1652777;86;21013;-63
2022/09/28 10:04:18;;;;;;;17.20;15.40;;;;;;;23.37;100.00;98834.50;1636480;87;21542;-62
2022/09/28 10:06:45;;;;;;;15.33;13.07;;;;;;;23.33;100.00;98833.53;1638282;86;21155;-62
2022/09/28 10:09:26;;;;;;;15.70;14.20;;;;;;;23.38;100.00;98840.08;1634308;85;21072;-64
2022/09/28 10:11:54;;;;;;;17.20;15.57;;;;;;;23.30;100.00;98832.28;1651373;86;21214;-62
2022/09/28 10:14:23;;;;;;;17.47;15.93;;;;;;;23.48;100.00;98829.19;1631418;87;21475;-63
2022/09/28 10:16:54;;;;;;;16.90;15.20;;;;;;;23.85;100.00;98819.27;1636066;87;21526;-63
2022/09/28 10:19:39;;;;;;;16.17;14.63;;;;;;;24.44;100.00;98818.52;1623449;87;20925;-63
2022/09/28 10:22:26;;;;;;;17.70;15.87;;;;;;;25.07;100.00;98818.27;1636239;87;21011;-64
2022/09/28 10:24:56;;;;;;;15.60;14.07;;;;;;;25.34;100.00;98825.18;1635630;87;21867;-67
2022/09/28 10:27:30;;;;;;;15.80;14.40;;;;;;;25.49;100.00;98818.02;1634562;87;21079;-64
2022/09/28 10:30:13;;;;;;;15.05;13.50;;;;;;;25.79;100.00;98821.59;1635575;87;21056;-63
2022/09/28 10:32:45;;;;;;;15.38;14.00;;;;;;;26.14;100.00;98828.95;1636387;87;21080;-64
2022/09/28 10:35:28;;;;;;;14.80;13.30;;;;;;;26.40;100.00;98828.83;1636550;87;21280;-62
2022/09/28 10:38:02;;;;;;;13.58;12.28;;;;;;;26.42;100.00;98831.16;1636605;87;21114;-62
2022/09/28 10:40:53;;;;;;;13.93;12.53;;;;;;;26.43;100.00;98833.50;1636442;86;21083;-62
2022/09/28 10:43:33;;;;;;;14.68;13.28;;;;;;;26.29;100.00;98831.63;1636124;87;21545;-62
2022/09/28 10:46:14;;;;;;;13.45;12.25;;;;;;;26.23;100.00;98833.47;1636299;86;21531;-63
2022/09/28 10:49:06;;;;;;;13.53;12.33;;;;;;;26.04;100.00;98834.63;1636835;86;21075;-61
2022/09/28 10:51:56;;;;;;;13.50;12.20;;;;;;;25.81;100.00;98832.75;1636147;87;23178;-61
2022/09/28 10:54:25;;;;;;;13.35;12.13;;;;;;;25.55;100.00;98840.00;1639394;87;20984;-62
2022/09/28 10:56:53;;;;;;;13.83;12.43;;;;;;;25.20;100.00;98832.03;1636509;87;21029;-61
2022/09/28 10:59:26;;;;;;;13.22;11.95;;;;;;;24.85;100.00;98833.33;1636699;86;20937;-61
2022/09/28 11:01:57;;;;;;;15.03;13.32;;;;;;;24.68;100.00;98835.41;1618661;87;21486;-62
2022/09/28 11:04:27;;;;;;;14.33;12.83;;;;;;;24.44;100.00;98834.49;1636634;87;21201;-61
2022/09/28 11:06:57;;;;;;;13.97;12.73;;;;;;;24.18;100.00;98838.91;1636507;86;21019;-61
2022/09/28 11:09:29;;;;;;;13.70;12.40;;;;;;;23.92;100.00;98835.59;1663316;86;20955;-67
2022/09/28 11:11:58;;;;;;;13.03;11.63;;;;;;;23.62;100.00;98834.45;1717563;83;21433;-61
2022/09/28 11:14:38;;;;;;;13.50;12.20;;;;;;;23.37;100.00;98839.04;1718872;83;20898;-61
2022/09/28 11:17:37;;;;;;;14.00;12.60;;;;;;;23.15;100.00;98835.30;1718368;83;21872;-64
2022/09/28 11:20:28;;;;;;;13.37;11.97;;;;;;;22.95;100.00;98835.18;1718662;83;21540;-61
2022/09/28 11:23:25;;;;;;;13.73;12.43;;;;;;;22.80;100.00;98834.16;1718795;83;21107;-61
2022/09/28 11:26:04;;;;;;;13.10;11.77;;;;;;;22.68;100.00;98836.54;1692506;83;21420;-67
2022/09/28 11:28:36;;;;;;;12.47;11.27;;;;;;;22.57;100.00;98842.05;1719079;82;21958;-61
2022/09/28 11:31:06;;;;;;;12.77;11.57;;;;;;;22.50;100.00;98837.70;1688837;84;21803;-61
2022/09/28 11:33:43;;;;;;;13.30;12.00;;;;;;;22.57;100.00;98842.05;1718331;83;21487;-62
2022/09/28 11:37:11;;;;;;;11.87;10.67;;;;;;;22.67;100.00;98839.74;1716987;83;20929;-61
2022/09/28 11:40:09;;;;;;;11.13;10.13;;;;;;;22.79;100.00;98834.70;1671667;83;21043;-62
2022/09/28 11:43:20;;;;;;;14.60;11.53;;;;;;;22.94;100.00;98819.55;1695349;84;20931;-65
2022/09/28 11:46:04;;;;;;;11.97;10.77;;;;;;;23.02;100.00;98820.95;1670032;84;21301;-67
2022/09/28 11:48:44;;;;;;;12.53;11.23;;;;;;;23.10;100.00;98821.32;1671295;84;21017;-61
2022/09/28 11:51:22;;;;;;;11.07;10.07;;;;;;;23.20;100.00;98819.77;1678308;84;20957;-61
2022/09/28 11:53:58;;;;;;;11.43;10.23;;;;;;;23.30;100.00;98815.55;1668345;83;21783;-60
2022/09/28 11:56:37;;;;;;;11.10;10.10;;;;;;;23.38;100.00;98821.47;1695413;84;20972;-61
2022/09/28 11:59:15;;;;;;;10.50;9.50;;;;;;;23.44;100.00;98823.45;1693654;84;21155;-61